Time;durP1;ratioP1;P1;durP2;ratioP2;P2;SDS_P1;SDS_P2;PMS_P1;PMS_P2;Temp;Humidity;BMP_temperature;BMP_pressure;BME280_temperature;BME280_humidity;BME280_pressure;Samples;Min_cycle;Max_cycle;Signal;HPM_P1;HPM_P2
2021/12/29 00:00:02;;;;;;;10.53;9.10;;;8.60;99.90;;;;;;1886022;76;21066;-92
2021/12/29 00:02:58;;;;;;;9.93;8.65;;;8.60;99.90;;;;;;1885885;76;21071;-93
2021/12/29 00:05:50;;;;;;;8.88;7.97;;;8.60;99.90;;;;;;1885927;76;21081;-93
2021/12/29 00:08:42;;;;;;;8.98;8.08;;;8.50;99.90;;;;;;1888697;75;21147;-92
2021/12/29 00:11:37;;;;;;;8.28;7.47;;;8.50;99.90;;;;;;1887230;76;21116;-93
2021/12/29 00:14:27;;;;;;;8.43;7.62;;;8.50;99.90;;;;;;1885848;76;21152;-94
2021/12/29 00:17:20;;;;;;;9.00;8.20;;;8.40;99.90;;;;;;1885934;76;21100;-93
2021/12/29 00:20:14;;;;;;;8.30;7.10;;;8.40;99.90;;;;;;1885850;76;21090;-92
2021/12/29 00:23:09;;;;;;;7.30;6.60;;;8.40;99.90;;;;;;1885861;76;21537;-93
2021/12/29 00:26:05;;;;;;;7.37;6.67;;;8.40;99.90;;;;;;1885916;76;21066;-94
2021/12/29 00:28:58;;;;;;;6.55;5.85;;;8.30;99.90;;;;;;1885664;76;21110;-93
2021/12/29 00:32:09;;;;;;;5.50;5.00;;;8.40;99.90;;;;;;1885634;76;21070;-94
2021/12/29 00:35:37;;;;;;;;;;;8.40;99.90;;;;;;1888557;76;21066;-96
2021/12/29 00:38:46;;;;;;;4.87;4.40;;;8.30;99.90;;;;;;1885707;76;20414;-93
2021/12/29 00:41:55;;;;;;;4.72;4.22;;;8.30;99.90;;;;;;1892827;75;21144;-93
2021/12/29 00:44:58;;;;;;;4.72;4.33;;;8.30;99.90;;;;;;1810263;75;21137;-93
2021/12/29 00:47:50;;;;;;;4.70;4.20;;;8.30;99.90;;;;;;1901480;75;21101;-94
2021/12/29 00:50:43;;;;;;;3.95;3.65;;;8.30;99.90;;;;;;1901687;75;21106;-94
2021/12/29 00:53:35;;;;;;;3.92;3.60;;;8.20;99.90;;;;;;1900880;75;21050;-94
2021/12/29 00:56:27;;;;;;;3.17;2.87;;;8.20;99.90;;;;;;1901026;75;21051;-94
2021/12/29 09:13:29;;;;;;;3.85;2.55;;;8.30;99.90;;;;;;1949693;72;27560;-96
2021/12/29 09:19:39;;;;;;;3.80;2.72;;;8.30;99.90;;;;;;2007491;71;22160;-81
2021/12/29 09:22:29;;;;;;;3.55;2.70;;;8.40;99.90;;;;;;1968148;72;21160;-81
2021/12/29 09:25:25;;;;;;;3.45;3.05;;;8.30;99.90;;;;;;2047970;69;21154;-80
2021/12/29 09:28:22;;;;;;;3.62;3.25;;;8.30;99.90;;;;;;2032749;70;21120;-80
2021/12/29 09:31:35;;;;;;;5.62;3.25;;;8.40;99.90;;;;;;2041486;69;21070;-80
2021/12/29 09:34:31;;;;;;;4.92;3.27;;;8.40;99.90;;;;;;2026697;69;21158;-80
2021/12/29 09:37:30;;;;;;;3.75;2.62;;;8.40;99.90;;;;;;2033397;69;21092;-81
2021/12/29 09:43:10;;;;;;;3.20;2.90;;;8.50;99.90;;;;;;1954834;72;22206;-81
2021/12/29 09:46:05;;;;;;;3.65;2.90;;;8.50;99.90;;;;;;1910691;73;21115;-81
2021/12/29 09:48:56;;;;;;;3.47;2.80;;;8.40;99.90;;;;;;1894683;75;21113;-81
2021/12/29 09:51:49;;;;;;;2.52;2.27;;;8.50;99.90;;;;;;1905427;75;21164;-79
2021/12/29 09:57:45;;;;;;;2.42;2.20;;;8.50;99.90;;;;;;1944356;72;22268;-81
2021/12/29 10:03:17;;;;;;;3.15;2.60;;;8.50;99.90;;;;;;1935763;72;22154;-82
2021/12/29 10:06:11;;;;;;;4.12;3.17;;;8.60;99.90;;;;;;1905434;75;21102;-81
2021/12/29 10:12:08;;;;;;;4.12;3.10;;;8.60;99.90;;;;;;1950762;72;22146;-81
2021/12/29 10:15:02;;;;;;;4.15;3.75;;;8.60;99.90;;;;;;1910743;75;21055;-80
2021/12/29 10:18:04;;;;;;;3.67;3.15;;;8.50;99.90;;;;;;1894855;75;21117;-81
2021/12/29 10:23:36;;;;;;;3.50;2.80;;;8.60;99.90;;;;;;1955117;72;22240;-81
2021/12/29 10:26:29;;;;;;;3.83;3.40;;;8.60;99.90;;;;;;1924231;74;21236;-80
2021/12/29 10:29:22;;;;;;;2.90;2.33;;;8.60;99.90;;;;;;1917282;75;21121;-80
2021/12/29 10:32:14;;;;;;;2.45;2.25;;;8.60;99.90;;;;;;1917711;75;21125;-80
2021/12/29 10:38:14;;;;;;;3.27;2.70;;;8.70;99.90;;;;;;1941944;72;22205;-81
2021/12/29 10:41:06;;;;;;;3.12;2.50;;;8.70;99.90;;;;;;1920394;74;21195;-81
2021/12/29 10:44:01;;;;;;;20.52;18.52;;;8.70;99.90;;;;;;1944450;74;21059;-81
2021/12/29 10:46:56;;;;;;;3.45;3.15;;;8.70;99.90;;;;;;1914304;75;21042;-81
2021/12/29 10:52:51;;;;;;;4.05;3.60;;;8.80;99.90;;;;;;1951274;72;22234;-80
2021/12/29 10:55:42;;;;;;;3.45;3.15;;;8.80;99.90;;;;;;1891985;75;21202;-81
2021/12/29 10:58:35;;;;;;;5.17;4.08;;;8.80;99.90;;;;;;1883326;75;21080;-80
2021/12/29 11:04:08;;;;;;;4.47;3.87;;;8.90;99.90;;;;;;1958179;72;22220;-81
2021/12/29 11:07:01;;;;;;;5.80;3.60;;;8.90;99.90;;;;;;1917629;75;21230;-80
2021/12/29 11:09:53;;;;;;;4.75;3.12;;;8.90;99.90;;;;;;1917389;75;21101;-80
2021/12/29 11:12:50;;;;;;;3.75;3.30;;;8.70;99.90;;;;;;1904271;75;21167;-82
2021/12/29 11:16:01;;;;;;;3.95;3.45;;;8.80;99.90;;;;;;1901095;75;21086;-81
2021/12/29 11:18:54;;;;;;;3.75;3.35;;;8.80;99.90;;;;;;1896054;75;21193;-81
2021/12/29 11:21:46;;;;;;;2.60;2.20;;;8.70;99.90;;;;;;1913037;75;21107;-80
2021/12/29 11:24:39;;;;;;;2.27;1.90;;;8.70;99.90;;;;;;1914341;75;21069;-80
2021/12/29 11:30:13;;;;;;;2.33;1.90;;;8.80;99.90;;;;;;1941192;72;22574;-81
2021/12/29 11:33:10;;;;;;;2.98;2.10;;;8.80;99.90;;;;;;1889295;75;21142;-80
2021/12/29 11:36:05;;;;;;;5.72;3.22;;;8.90;99.90;;;;;;1910312;74;21187;-81
2021/12/29 11:38:58;;;;;;;4.42;2.25;;;9.00;99.90;;;;;;1895680;75;21141;-81
2021/12/29 11:42:09;;;;;;;2.83;2.42;;;8.90;99.90;;;;;;1909641;74;21108;-80
2021/12/29 11:45:01;;;;;;;4.58;3.90;;;8.90;99.90;;;;;;1899828;75;21173;-80
2021/12/29 11:47:53;;;;;;;4.78;3.60;;;8.90;99.90;;;;;;1894279;75;21122;-80
2021/12/29 11:50:50;;;;;;;3.22;2.72;;;8.90;99.90;;;;;;1909616;75;21125;-82
2021/12/29 11:56:24;;;;;;;6.25;5.37;;;8.90;99.90;;;;;;1938210;72;22185;-81
2021/12/29 11:59:15;;;;;;;4.80;3.40;;;9.00;99.90;;;;;;1894775;75;21607;-83
2021/12/29 12:02:09;;;;;;;5.92;4.50;;;9.00;99.90;;;;;;1912779;75;21113;-82
2021/12/29 12:05:02;;;;;;;5.47;4.30;;;9.00;99.90;;;;;;1895341;75;21103;-82
2021/12/29 12:08:14;;;;;;;5.35;4.12;;;9.00;99.90;;;;;;1915558;75;21020;-83
2021/12/29 12:11:05;;;;;;;6.00;4.05;;;9.00;99.90;;;;;;1873618;76;21054;-81
2021/12/29 12:13:57;;;;;;;6.12;3.75;;;9.00;99.90;;;;;;1897016;75;21047;-81
2021/12/29 12:16:54;;;;;;;3.55;2.55;;;9.00;99.90;;;;;;1906836;75;21144;-78
2021/12/29 12:19:48;;;;;;;2.47;2.27;;;9.00;99.90;;;;;;1908377;75;21167;-77
2021/12/29 12:22:46;;;;;;;3.75;2.92;;;9.00;99.90;;;;;;1905352;75;21110;-77
2021/12/29 12:25:38;;;;;;;4.35;2.92;;;9.00;99.90;;;;;;1897248;75;21121;-76
2021/12/29 12:28:29;;;;;;;3.90;2.75;;;9.00;99.90;;;;;;1902963;75;21089;-76
2021/12/29 12:34:13;;;;;;;4.40;3.90;;;9.00;99.90;;;;;;1952198;72;22149;-77
2021/12/29 12:37:16;;;;;;;3.67;3.20;;;9.00;99.90;;;;;;1917278;75;21090;-81
